sensor_id;sensor_type;location;lat;lon;timestamp;pressure;altitude;pressure_sealevel;temperature;humidity
37068;BME280;22982;42.848;25.468;2022-10-15T01:15:17;96500.78;;;7.90;100.00
37068;BME280;22982;42.848;25.468;2022-10-15T03:28:57;96529.28;;;7.95;100.00
37068;BME280;22982;42.848;25.468;2022-10-15T03:51:22;96541.00;;;8.05;100.00
37068;BME280;22982;42.848;25.468;2022-10-15T03:56:36;96589.78;;;8.44;100.00
37068;BME280;22982;42.848;25.468;2022-10-15T04:01:59;96508.34;;;7.96;100.00
37068;BME280;22982;42.848;25.468;2022-10-15T04:07:02;96587.69;;;8.32;100.00
37068;BME280;22982;42.848;25.468;2022-10-15T04:12:06;96586.59;;;7.98;100.00
37068;BME280;22982;42.848;25.468;2022-10-15T04:17:08;96555.97;;;7.82;100.00
37068;BME280;22982;42.848;25.468;2022-10-15T04:22:11;96599.66;;;7.98;100.00
37068;BME280;22982;42.848;25.468;2022-10-15T04:27:21;96575.75;;;8.07;100.00
37068;BME280;22982;42.848;25.468;2022-10-15T04:32:24;96578.41;;;8.05;100.00
37068;BME280;22982;42.848;25.468;2022-10-15T04:37:26;96579.13;;;8.09;100.00
37068;BME280;22982;42.848;25.468;2022-10-15T04:42:29;96594.25;;;7.82;100.00
37068;BME280;22982;42.848;25.468;2022-10-15T04:47:33;96543.53;;;7.69;100.00
37068;BME280;22982;42.848;25.468;2022-10-15T04:52:44;96555.03;;;7.83;100.00
37068;BME280;22982;42.848;25.468;2022-10-15T04:57:47;96550.13;;;7.77;100.00
37068;BME280;22982;42.848;25.468;2022-10-15T05:02:54;96593.91;;;7.71;100.00
37068;BME280;22982;42.848;25.468;2022-10-15T05:08:05;96620.13;;;7.67;100.00
37068;BME280;22982;42.848;25.468;2022-10-15T05:13:26;96619.91;;;7.93;100.00
37068;BME280;22982;42.848;25.468;2022-10-15T05:18:29;96622.56;;;8.12;100.00
37068;BME280;22982;42.848;25.468;2022-10-15T05:23:32;96624.41;;;8.29;100.00
37068;BME280;22982;42.848;25.468;2022-10-15T05:29:02;96565.56;;;7.82;100.00
37068;BME280;22982;42.848;25.468;2022-10-15T05:34:07;96608.50;;;8.14;100.00
37068;BME280;22982;42.848;25.468;2022-10-15T05:39:18;96638.41;;;8.28;100.00
37068;BME280;22982;42.848;25.468;2022-10-15T05:44:20;96654.03;;;8.48;100.00
37068;BME280;22982;42.848;25.468;2022-10-15T05:49:23;96598.13;;;8.32;100.00
37068;BME280;22982;42.848;25.468;2022-10-15T05:54:44;96617.75;;;8.42;100.00
37068;BME280;22982;42.848;25.468;2022-10-15T06:00:34;96617.50;;;7.88;100.00
37068;BME280;22982;42.848;25.468;2022-10-15T06:05:51;96637.88;;;8.19;100.00
37068;BME280;22982;42.848;25.468;2022-10-15T06:11:26;96595.22;;;8.38;100.00
37068;BME280;22982;42.848;25.468;2022-10-15T06:16:35;96672.31;;;9.05;100.00
37068;BME280;22982;42.848;25.468;2022-10-15T06:40:53;96696.38;;;9.31;100.00
37068;BME280;22982;42.848;25.468;2022-10-15T06:52:24;96648.00;;;11.81;100.00
37068;BME280;22982;42.848;25.468;2022-10-15T06:57:54;96671.13;;;15.38;88.67
37068;BME280;22982;42.848;25.468;2022-10-15T07:03:06;96618.50;;;16.96;74.59
37068;BME280;22982;42.848;25.468;2022-10-15T07:08:10;96677.81;;;15.07;85.54
37068;BME280;22982;42.848;25.468;2022-10-15T07:13:33;96689.59;;;14.39;90.08
37068;BME280;22982;42.848;25.468;2022-10-15T07:25:01;96649.72;;;12.97;90.20
37068;BME280;22982;42.848;25.468;2022-10-15T07:54:00;96661.34;;;11.48;100.00
37068;BME280;22982;42.848;25.468;2022-10-15T07:59:02;96658.22;;;11.72;100.00
37068;BME280;22982;42.848;25.468;2022-10-15T08:04:04;96669.38;;;11.75;100.00
37068;BME280;22982;42.848;25.468;2022-10-15T08:15:33;96639.66;;;11.75;100.00
37068;BME280;22982;42.848;25.468;2022-10-15T08:20:44;96656.72;;;11.67;100.00
37068;BME280;22982;42.848;25.468;2022-10-15T08:26:01;96680.34;;;11.67;100.00
37068;BME280;22982;42.848;25.468;2022-10-15T08:31:24;96710.19;;;11.97;100.00
37068;BME280;22982;42.848;25.468;2022-10-15T08:42:30;96706.94;;;12.07;100.00
37068;BME280;22982;42.848;25.468;2022-10-15T08:53:18;96648.72;;;11.99;100.00
37068;BME280;22982;42.848;25.468;2022-10-15T09:04:17;96697.34;;;12.06;100.00
37068;BME280;22982;42.848;25.468;2022-10-15T09:09:52;96724.34;;;12.39;100.00
37068;BME280;22982;42.848;25.468;2022-10-15T09:15:11;96692.63;;;11.67;100.00
37068;BME280;22982;42.848;25.468;2022-10-15T09:20:45;96723.34;;;11.81;100.00
37068;BME280;22982;42.848;25.468;2022-10-15T09:31:16;96714.00;;;11.45;100.00
37068;BME280;22982;42.848;25.468;2022-10-15T09:47:29;96685.88;;;11.01;100.00
37068;BME280;22982;42.848;25.468;2022-10-15T11:25:29;96680.41;;;13.11;95.88
37068;BME280;22982;42.848;25.468;2022-10-15T11:46:46;96682.94;;;14.20;86.91
37068;BME280;22982;42.848;25.468;2022-10-15T11:52:47;96696.88;;;14.48;83.50
37068;BME280;22982;42.848;25.468;2022-10-15T11:58:01;96662.69;;;14.33;83.96
37068;BME280;22982;42.848;25.468;2022-10-15T12:03:16;96671.31;;;14.35;84.33
37068;BME280;22982;42.848;25.468;2022-10-15T12:08:27;96646.00;;;14.46;81.39
37068;BME280;22982;42.848;25.468;2022-10-15T12:13:40;96676.72;;;14.72;82.16
37068;BME280;22982;42.848;25.468;2022-10-15T12:18:49;96686.50;;;14.96;80.39
37068;BME280;22982;42.848;25.468;2022-10-15T12:23:58;96644.53;;;14.67;80.63
37068;BME280;22982;42.848;25.468;2022-10-15T12:29:19;96679.97;;;14.89;79.04
37068;BME280;22982;42.848;25.468;2022-10-15T12:34:39;96686.84;;;15.16;77.02
37068;BME280;22982;42.848;25.468;2022-10-15T12:39:44;96694.66;;;15.17;79.00
37068;BME280;22982;42.848;25.468;2022-10-15T12:44:54;96684.50;;;15.24;79.36
37068;BME280;22982;42.848;25.468;2022-10-15T12:50:04;96663.16;;;15.27;77.67
37068;BME280;22982;42.848;25.468;2022-10-15T13:53:45;96664.78;;;14.28;83.79
37068;BME280;22982;42.848;25.468;2022-10-15T13:58:53;96679.88;;;14.39;83.56
37068;BME280;22982;42.848;25.468;2022-10-15T14:03:58;96659.31;;;14.06;84.10
37068;BME280;22982;42.848;25.468;2022-10-15T14:09:22;96692.13;;;13.74;87.63
37068;BME280;22982;42.848;25.468;2022-10-15T14:14:33;96676.28;;;13.62;87.72
37068;BME280;22982;42.848;25.468;2022-10-15T14:19:37;96680.59;;;13.50;88.83
37068;BME280;22982;42.848;25.468;2022-10-15T14:24:40;96681.75;;;13.58;89.06
37068;BME280;22982;42.848;25.468;2022-10-15T14:29:44;96702.50;;;13.90;88.12
37068;BME280;22982;42.848;25.468;2022-10-15T14:34:59;96672.91;;;13.59;89.59
37068;BME280;22982;42.848;25.468;2022-10-15T14:50:22;96679.53;;;13.25;92.66
37068;BME280;22982;42.848;25.468;2022-10-15T14:55:31;96679.41;;;13.27;93.60
37068;BME280;22982;42.848;25.468;2022-10-15T15:00:41;96650.66;;;13.24;94.13
37068;BME280;22982;42.848;25.468;2022-10-15T15:05:50;96689.88;;;13.95;100.00
37068;BME280;22982;42.848;25.468;2022-10-15T15:10:55;96688.44;;;13.64;100.00
37068;BME280;22982;42.848;25.468;2022-10-15T15:15:58;96666.03;;;14.35;100.00
37068;BME280;22982;42.848;25.468;2022-10-15T15:21:05;96625.66;;;14.85;100.00
37068;BME280;22982;42.848;25.468;2022-10-15T15:26:15;96683.56;;;14.49;100.00
37068;BME280;22982;42.848;25.468;2022-10-15T15:31:17;96672.72;;;15.04;100.00
37068;BME280;22982;42.848;25.468;2022-10-15T15:36:19;96647.66;;;15.34;100.00
37068;BME280;22982;42.848;25.468;2022-10-15T15:41:24;96694.94;;;15.49;100.00
37068;BME280;22982;42.848;25.468;2022-10-15T15:46:27;96694.91;;;15.01;99.70
37068;BME280;22982;42.848;25.468;2022-10-15T15:57:07;96723.78;;;12.91;100.00
37068;BME280;22982;42.848;25.468;2022-10-15T16:02:11;96709.22;;;12.71;100.00
37068;BME280;22982;42.848;25.468;2022-10-15T16:07:39;96733.94;;;11.79;100.00
37068;BME280;22982;42.848;25.468;2022-10-15T16:12:42;96683.75;;;10.91;100.00
37068;BME280;22982;42.848;25.468;2022-10-15T16:31:22;96680.19;;;10.92;100.00
37068;BME280;22982;42.848;25.468;2022-10-15T16:42:04;96719.53;;;10.61;100.00
37068;BME280;22982;42.848;25.468;2022-10-15T16:47:07;96763.13;;;11.11;100.00
37068;BME280;22982;42.848;25.468;2022-10-15T16:52:09;96702.34;;;10.71;100.00
37068;BME280;22982;42.848;25.468;2022-10-15T16:57:12;96775.66;;;10.90;100.00
37068;BME280;22982;42.848;25.468;2022-10-15T17:02:14;96743.16;;;10.92;100.00
37068;BME280;22982;42.848;25.468;2022-10-15T17:07:16;96769.28;;;11.27;100.00
37068;BME280;22982;42.848;25.468;2022-10-15T17:12:19;96754.50;;;11.09;100.00
37068;BME280;22982;42.848;25.468;2022-10-15T17:17:21;96754.09;;;11.01;100.00
37068;BME280;22982;42.848;25.468;2022-10-15T17:22:24;96776.25;;;11.11;100.00
37068;BME280;22982;42.848;25.468;2022-10-15T17:27:27;96768.63;;;10.90;100.00
37068;BME280;22982;42.848;25.468;2022-10-15T17:32:29;96750.13;;;10.60;100.00
37068;BME280;22982;42.848;25.468;2022-10-15T17:37:32;96767.00;;;10.72;100.00
37068;BME280;22982;42.848;25.468;2022-10-15T17:42:34;96772.09;;;10.75;100.00
37068;BME280;22982;42.848;25.468;2022-10-15T17:47:37;96808.13;;;10.87;100.00
37068;BME280;22982;42.848;25.468;2022-10-15T17:52:40;96792.84;;;10.96;100.00
37068;BME280;22982;42.848;25.468;2022-10-15T17:57:42;96814.00;;;10.92;100.00
37068;BME280;22982;42.848;25.468;2022-10-15T18:02:47;96801.28;;;10.51;100.00
37068;BME280;22982;42.848;25.468;2022-10-15T18:07:50;96780.69;;;10.44;100.00
37068;BME280;22982;42.848;25.468;2022-10-15T18:12:52;96777.22;;;10.26;100.00
37068;BME280;22982;42.848;25.468;2022-10-15T18:17:55;96808.84;;;10.40;100.00
37068;BME280;22982;42.848;25.468;2022-10-15T18:22:57;96821.19;;;10.38;100.00
37068;BME280;22982;42.848;25.468;2022-10-15T18:28:22;96800.97;;;10.23;100.00
37068;BME280;22982;42.848;25.468;2022-10-15T18:33:25;96778.63;;;10.15;100.00
37068;BME280;22982;42.848;25.468;2022-10-15T18:38:27;96805.41;;;10.21;100.00
37068;BME280;22982;42.848;25.468;2022-10-15T18:43:30;96811.59;;;10.20;100.00
37068;BME280;22982;42.848;25.468;2022-10-15T18:48:32;96849.25;;;10.36;100.00
37068;BME280;22982;42.848;25.468;2022-10-15T18:53:38;96855.59;;;10.32;100.00
37068;BME280;22982;42.848;25.468;2022-10-15T18:58:41;96856.00;;;10.23;100.00
37068;BME280;22982;42.848;25.468;2022-10-15T19:03:43;96824.41;;;10.08;100.00
37068;BME280;22982;42.848;25.468;2022-10-15T19:08:46;96862.50;;;10.33;100.00
37068;BME280;22982;42.848;25.468;2022-10-15T19:13:56;96819.16;;;10.08;100.00
37068;BME280;22982;42.848;25.468;2022-10-15T19:18:59;96821.00;;;10.24;100.00
37068;BME280;22982;42.848;25.468;2022-10-15T19:24:11;96828.97;;;9.86;100.00
37068;BME280;22982;42.848;25.468;2022-10-15T19:29:14;96794.28;;;9.81;100.00
37068;BME280;22982;42.848;25.468;2022-10-15T19:34:19;96848.94;;;9.88;100.00
37068;BME280;22982;42.848;25.468;2022-10-15T19:39:23;96883.59;;;10.12;100.00
37068;BME280;22982;42.848;25.468;2022-10-15T19:44:26;96810.91;;;9.62;100.00
37068;BME280;22982;42.848;25.468;2022-10-15T19:49:28;96858.75;;;9.66;100.00
37068;BME280;22982;42.848;25.468;2022-10-15T19:54:31;96836.16;;;10.53;100.00
37068;BME280;22982;42.848;25.468;2022-10-15T19:59:33;96851.22;;;9.77;100.00
37068;BME280;22982;42.848;25.468;2022-10-15T20:04:35;96889.72;;;9.75;100.00
37068;BME280;22982;42.848;25.468;2022-10-15T20:09:38;96834.88;;;8.96;100.00
37068;BME280;22982;42.848;25.468;2022-10-15T20:14:41;96868.72;;;8.80;100.00
37068;BME280;22982;42.848;25.468;2022-10-15T20:19:43;96853.75;;;8.63;100.00
37068;BME280;22982;42.848;25.468;2022-10-15T20:24:46;96844.47;;;8.56;100.00
37068;BME280;22982;42.848;25.468;2022-10-15T20:29:48;96866.22;;;9.73;100.00
37068;BME280;22982;42.848;25.468;2022-10-15T20:34:50;96846.75;;;8.84;100.00
37068;BME280;22982;42.848;25.468;2022-10-15T20:39:53;96859.84;;;8.43;100.00
37068;BME280;22982;42.848;25.468;2022-10-15T20:44:55;96911.28;;;8.20;100.00
37068;BME280;22982;42.848;25.468;2022-10-15T20:49:57;96875.44;;;7.80;100.00
37068;BME280;22982;42.848;25.468;2022-10-15T20:55:00;96874.66;;;7.56;100.00
37068;BME280;22982;42.848;25.468;2022-10-15T21:00:05;96871.78;;;7.62;100.00
37068;BME280;22982;42.848;25.468;2022-10-15T21:05:08;96879.91;;;8.84;100.00
37068;BME280;22982;42.848;25.468;2022-10-15T21:10:11;96864.72;;;9.87;100.00
37068;BME280;22982;42.848;25.468;2022-10-15T21:15:14;96900.91;;;9.78;100.00
37068;BME280;22982;42.848;25.468;2022-10-15T21:20:16;96916.91;;;8.32;100.00
37068;BME280;22982;42.848;25.468;2022-10-15T21:25:19;96879.16;;;7.28;100.00
37068;BME280;22982;42.848;25.468;2022-10-15T21:30:21;96847.34;;;6.46;100.00
37068;BME280;22982;42.848;25.468;2022-10-15T21:35:23;96874.25;;;6.47;100.00
37068;BME280;22982;42.848;25.468;2022-10-15T21:40:26;96905.34;;;6.51;100.00
37068;BME280;22982;42.848;25.468;2022-10-15T21:45:28;96905.25;;;6.01;100.00
37068;BME280;22982;42.848;25.468;2022-10-15T21:50:31;96894.22;;;5.65;100.00
37068;BME280;22982;42.848;25.468;2022-10-15T21:55:33;96915.72;;;5.71;100.00
37068;BME280;22982;42.848;25.468;2022-10-15T22:00:35;96905.78;;;5.84;100.00
37068;BME280;22982;42.848;25.468;2022-10-15T22:05:38;96898.22;;;5.77;100.00
37068;BME280;22982;42.848;25.468;2022-10-15T22:10:40;96856.06;;;5.37;100.00
37068;BME280;22982;42.848;25.468;2022-10-15T22:15:43;96891.38;;;5.44;100.00
37068;BME280;22982;42.848;25.468;2022-10-15T22:20:45;96906.41;;;5.34;100.00
37068;BME280;22982;42.848;25.468;2022-10-15T22:25:56;96935.81;;;5.36;100.00
37068;BME280;22982;42.848;25.468;2022-10-15T22:31:05;96954.16;;;5.32;100.00
37068;BME280;22982;42.848;25.468;2022-10-15T22:36:17;96929.16;;;4.95;100.00
37068;BME280;22982;42.848;25.468;2022-10-15T22:41:20;96974.75;;;5.08;100.00
37068;BME280;22982;42.848;25.468;2022-10-15T22:46:23;96919.50;;;4.69;100.00
37068;BME280;22982;42.848;25.468;2022-10-15T22:51:26;96939.75;;;4.89;100.00
37068;BME280;22982;42.848;25.468;2022-10-15T22:56:29;96934.22;;;5.01;100.00
37068;BME280;22982;42.848;25.468;2022-10-15T23:01:32;96904.47;;;4.80;100.00
37068;BME280;22982;42.848;25.468;2022-10-15T23:06:41;96913.75;;;4.57;100.00
37068;BME280;22982;42.848;25.468;2022-10-15T23:11:44;96933.84;;;4.49;100.00
37068;BME280;22982;42.848;25.468;2022-10-15T23:16:47;96966.06;;;4.42;100.00
37068;BME280;22982;42.848;25.468;2022-10-15T23:21:54;96909.81;;;4.07;100.00
37068;BME280;22982;42.848;25.468;2022-10-15T23:27:05;96968.38;;;4.53;100.00
37068;BME280;22982;42.848;25.468;2022-10-15T23:32:08;96971.19;;;4.79;100.00
37068;BME280;22982;42.848;25.468;2022-10-15T23:37:10;96937.28;;;4.50;100.00
37068;BME280;22982;42.848;25.468;2022-10-15T23:42:13;96953.91;;;4.43;100.00
37068;BME280;22982;42.848;25.468;2022-10-15T23:47:15;96944.97;;;4.20;100.00
37068;BME280;22982;42.848;25.468;2022-10-15T23:52:17;96994.59;;;4.44;100.00
37068;BME280;22982;42.848;25.468;2022-10-15T23:57:20;96951.44;;;4.02;100.00
